Terminal Aerodrome Forecast
Issued by NWS Charleston, SC

Home | Current Version | Previous Version | Text Only | Print | Product List | Glossary On
Versions: 1 2 3 4 5 6 7 8 9 10 11 12
000
FTUS42 KCHS 200500
TAFCHS
TAF
KCHS 200540Z 2006/2106 VRB03KT P6SM SCT090 OVC130
      TEMPO 2009/2013 -RA SCT025 OVC100
     FM201300 02007KT 4SM -RA BR SCT015 OVC060
     FM201700 02008KT P6SM FEW009 OVC015
     FM210000 02006KT P6SM BKN007 OVC040=

USA.gov is the U.S. government's official web portal to all federal, state and local government web resources and services.